AKDT,Max TemperatureF,Mean TemperatureF,Min TemperatureF,Max Dew PointF,MeanDew PointF,Min DewpointF,Max Humidity, Mean Humidity, Min Humidity, Max Sea Level PressureIn, Mean Sea Level PressureIn, Min Sea Level PressureIn, Max VisibilityMiles, Mean VisibilityMiles, Min VisibilityMiles, Max Wind SpeedMPH, Mean Wind SpeedMPH, Max Gust SpeedMPH,PrecipitationIn, CloudCover, Events, WindDirDegrees
2012-9-1,53,50,46,50,47,44,94,89,86,29.68,29.58,29.53,10,9,6,7,3,,0.24,8,Rain,307
2012-9-2,59,45,33,49,41,34,100,88,60,29.67,29.62,29.46,10,4,0,9,2,,0.01,6,Fog,70
2012-9-3,57,54,50,50,44,40,89,71,57,29.57,29.45,29.41,10,10,8,12,8,18,0.10,8,Rain,80
2012-9-4,57,52,46,48,45,42,93,81,56,29.75,29.61,29.43,10,10,5,12,5,,0.19,7,Rain,118
2012-9-5,52,48,44,48,44,42,93,86,80,29.57,29.45,29.40,10,10,2,16,5,29,0.13,7,Rain,130
2012-9-6,50,47,44,43,41,39,87,79,66,30.02,29.83,29.60,10,10,10,17,9,26,0.04,8,Rain,209
2012-9-7,54,44,33,40,38,31,93,78,52,30.04,30.00,29.92,10,10,10,7,3,,0.00,6,,203
2012-9-8,54,41,28,39,33,27,100,84,53,29.96,29.94,29.91,10,8,0,10,3,,0.00,6,Fog-Rain,316
2012-9-9,53,42,30,34,30,26,96,68,40,29.98,29.96,29.94,10,10,10,12,4,,0.00,1,,320
2012-9-10,53,40,27,33,28,24,92,64,37,30.02,30.00,29.96,10,10,9,13,5,16,0.00,2,,77
2012-9-11,50,38,27,31,28,24,89,63,46,29.97,29.91,29.82,10,10,9,15,6,21,0.00,0,,65
2012-9-12,53,38,24,33,27,21,88,67,41,29.83,29.78,29.75,10,10,10,8,4,,0.00,1,,55
2012-9-13,48,40,33,34,31,28,82,69,50,29.88,29.85,29.81,10,10,10,10,3,,0.00,7,,43
2012-9-14,50,38,28,34,31,25,89,70,46,29.81,29.79,29.78,10,10,9,7,2,,0.00,7,,308
2012-9-15,48,42,35,42,36,32,97,81,63,29.81,29.76,29.58,10,10,6,12,4,,0.07,8,Rain,53
2012-9-16,55,48,43,44,39,33,89,74,52,29.55,29.28,29.08,10,10,10,16,9,28,0.04,8,Rain,81
2012-9-17,50,39,30,40,32,26,85,63,46,29.76,29.58,29.27,10,10,10,20,11,33,0.01,6,,196
2012-9-18,46,38,30,41,34,26,89,78,65,29.75,29.66,29.60,10,10,8,12,6,,0.08,6,Rain,92
2012-9-19,48,44,41,43,41,37,96,86,68,29.71,29.55,29.45,10,9,4,15,5,22,0.36,8,Rain,92
2012-9-20,48,44,42,45,43,41,100,94,89,29.76,29.69,29.58,10,9,2,7,2,,0.11,8,Fog-Rain,110
2012-9-21,54,46,39,46,44,39,97,90,74,29.86,29.72,29.61,10,8,2,9,3,,0.38,7,Rain,108
2012-9-22,57,49,43,43,42,40,89,72,60,29.65,29.39,29.27,10,10,10,16,6,24,0.00,6,Rain,76
2012-9-23,52,46,41,48,43,33,100,87,73,29.81,29.51,29.33,10,10,6,10,4,22,0.23,7,Rain,263
2012-9-24,43,33,24,30,26,21,92,74,49,30.00,29.95,29.84,10,10,10,9,4,16,0.00,1,,49
2012-9-25,48,36,24,32,26,21,88,71,48,29.88,29.66,29.41,10,10,10,9,4,,0.00,3,,21
2012-9-26,48,39,30,35,32,27,89,73,58,29.39,29.33,29.13,10,10,10,17,5,,0.00,6,,46
2012-9-27,45,38,32,37,33,30,93,82,68,29.16,29.04,28.95,10,10,9,8,3,,0.00,7,Rain,290
2012-9-28,36,34,33,34,33,30,100,93,87,29.52,29.34,29.18,10,7,1,8,5,,0.06,8,Rain-Snow,233
2012-9-29,35,32,30,32,30,28,100,92,82,29.92,29.71,29.52,10,5,0,8,4,,0.06,8,Fog-Snow,248
2012-9-30,37,32,24,30,28,22,93,84,67,30.13,30.04,29.90,10,9,2,7,2,,0.00,6,Snow,179